createdAt,value
2023-02-11T00:00:16.973Z,66.14
2023-02-11T00:02:46.059Z,65.51
2023-02-11T00:05:14.267Z,66.62
2023-02-11T00:07:40.754Z,68.58
2023-02-11T00:10:08.147Z,67.18
2023-02-11T00:12:36.249Z,66.31
2023-02-11T00:15:03.357Z,65.91
2023-02-11T00:17:29.866Z,65.43
2023-02-11T00:19:56.363Z,65.51
2023-02-11T00:22:22.996Z,65.82
2023-02-11T00:24:49.542Z,65.94
2023-02-11T00:27:16.055Z,65.70
2023-02-11T00:29:42.525Z,66.18
2023-02-11T00:32:09.776Z,66.86
2023-02-11T00:34:36.611Z,66.87
2023-02-11T00:37:03.628Z,66.39
2023-02-11T00:39:30.486Z,66.63
2023-02-11T00:41:57.464Z,67.40
2023-02-11T00:44:24.070Z,67.63
2023-02-11T00:46:50.691Z,67.16
2023-02-11T00:49:17.491Z,67.02
2023-02-11T00:51:44.107Z,67.11
2023-02-11T00:54:10.625Z,70.34
2023-02-11T00:56:37.311Z,70.60
2023-02-11T00:59:03.861Z,71.35
2023-02-11T01:01:30.550Z,69.83
2023-02-11T01:03:57.078Z,68.50
2023-02-11T01:06:23.661Z,68.66
2023-02-11T01:08:50.322Z,67.52
2023-02-11T01:11:20.033Z,67.85
2023-02-11T01:13:48.999Z,68.54
2023-02-11T01:16:15.927Z,69.43
2023-02-11T01:18:44.404Z,68.83
2023-02-11T01:21:11.356Z,68.09
2023-02-11T01:23:37.883Z,67.86
2023-02-11T01:26:05.327Z,66.99
2023-02-11T01:28:32.996Z,67.05
2023-02-11T01:31:01.219Z,66.84
2023-02-11T01:33:27.907Z,67.65
2023-02-11T01:35:54.641Z,68.97
2023-02-11T01:38:26.034Z,67.87
2023-02-11T01:41:01.612Z,67.45
2023-02-11T01:43:32.520Z,69.18
2023-02-11T01:46:32.912Z,70.62
2023-02-11T01:49:05.531Z,69.52
2023-02-11T01:51:54.944Z,69.50
2023-02-11T01:54:44.717Z,69.29
2023-02-11T01:57:25.094Z,70.06
2023-02-11T02:00:07.482Z,69.30
2023-02-11T02:03:01.994Z,68.21
2023-02-11T02:05:39.116Z,68.57
2023-02-11T02:08:14.880Z,68.22
2023-02-11T02:10:45.772Z,67.87
2023-02-11T02:13:12.895Z,67.59
2023-02-11T02:15:44.133Z,67.59
2023-02-11T02:18:19.773Z,67.83
2023-02-11T02:21:05.096Z,67.35
2023-02-11T02:24:09.105Z,68.59
2023-02-11T02:27:10.277Z,68.30
2023-02-11T02:30:04.148Z,68.46
2023-02-11T02:32:38.441Z,68.29
2023-02-11T02:35:38.690Z,68.75
2023-02-11T02:38:13.100Z,68.62
2023-02-11T02:40:54.706Z,68.35
2023-02-11T02:43:22.897Z,68.99
2023-02-11T02:45:49.569Z,68.91
2023-02-11T02:48:26.602Z,69.16
2023-02-11T02:51:19.759Z,68.29
2023-02-11T02:54:14.890Z,68.56
2023-02-11T02:56:46.274Z,68.49
2023-02-11T02:59:30.534Z,69.14
2023-02-11T03:02:12.086Z,68.82
2023-02-11T03:04:56.925Z,70.75
2023-02-11T03:07:42.958Z,69.85
2023-02-11T03:10:19.262Z,68.70
2023-02-11T03:12:48.542Z,68.02
2023-02-11T03:15:17.460Z,68.73
2023-02-11T03:17:50.226Z,68.66
2023-02-11T03:20:19.901Z,68.43
2023-02-11T03:22:48.648Z,67.75
2023-02-11T03:25:15.580Z,68.07
2023-02-11T03:28:08.528Z,68.78
2023-02-11T03:30:40.504Z,68.83
2023-02-11T03:33:18.885Z,70.09
2023-02-11T03:35:54.480Z,69.45
2023-02-11T03:38:26.143Z,69.16
2023-02-11T03:40:55.350Z,69.75
2023-02-11T03:43:28.003Z,70.59
2023-02-11T03:45:56.509Z,70.61
2023-02-11T03:48:29.522Z,69.43
2023-02-11T03:50:58.343Z,69.08
2023-02-11T03:53:24.881Z,68.48
2023-02-11T03:55:54.124Z,68.15
2023-02-11T03:58:20.859Z,68.14
2023-02-11T04:00:47.438Z,68.01
2023-02-11T04:03:14.273Z,68.66
2023-02-11T04:05:41.202Z,69.34
2023-02-11T04:08:08.155Z,70.29
2023-02-11T04:10:34.877Z,70.28
2023-02-11T04:13:01.398Z,70.59
2023-02-11T04:15:27.978Z,71.92
2023-02-11T04:17:54.482Z,72.33
2023-02-11T04:20:21.166Z,71.62
2023-02-11T04:22:47.584Z,70.29
2023-02-11T04:25:14.064Z,69.45
2023-02-11T04:27:40.688Z,69.22
2023-02-11T04:30:08.023Z,69.43
2023-02-11T04:32:34.530Z,68.50
2023-02-11T04:35:01.123Z,68.81
2023-02-11T04:37:27.652Z,68.94
2023-02-11T04:39:54.223Z,69.20
2023-02-11T04:42:20.762Z,68.44
2023-02-11T04:44:47.347Z,67.41
2023-02-11T04:47:15.368Z,67.10
2023-02-11T04:49:42.377Z,67.60
2023-02-11T04:52:09.335Z,68.28
2023-02-11T04:54:35.799Z,68.22
2023-02-11T04:57:02.676Z,67.86
2023-02-11T04:59:29.337Z,67.99
2023-02-11T05:01:55.941Z,67.82
2023-02-11T05:04:22.494Z,66.95
2023-02-11T05:06:49.132Z,66.68
2023-02-11T05:09:16.743Z,66.96
2023-02-11T05:11:43.479Z,67.36
2023-02-11T05:14:09.987Z,67.47
2023-02-11T05:16:36.549Z,66.94
2023-02-11T05:19:03.198Z,66.72
2023-02-11T05:21:29.760Z,65.98
2023-02-11T05:23:57.199Z,65.36
2023-02-11T05:26:23.751Z,66.35
2023-02-11T05:28:50.258Z,65.71
2023-02-11T05:31:16.943Z,65.81
2023-02-11T05:33:43.569Z,65.89
2023-02-11T05:36:11.742Z,64.83
2023-02-11T05:38:38.702Z,65.14
2023-02-11T05:41:06.704Z,65.74
2023-02-11T05:43:35.329Z,64.61
2023-02-11T05:46:02.320Z,65.18
2023-02-11T05:48:28.898Z,65.72
2023-02-11T05:50:55.490Z,65.41
2023-02-11T05:53:21.990Z,65.27
2023-02-11T05:55:48.588Z,65.05
2023-02-11T05:58:15.322Z,64.49
2023-02-11T06:00:41.864Z,67.50
2023-02-11T06:03:08.508Z,66.31
2023-02-11T06:05:35.062Z,67.17
2023-02-11T06:08:01.651Z,70.05
2023-02-11T06:10:28.132Z,69.56
2023-02-11T06:12:54.589Z,66.66
2023-02-11T06:15:21.136Z,65.14
2023-02-11T06:17:47.632Z,63.97
2023-02-11T06:20:14.289Z,63.34
2023-02-11T06:22:40.724Z,63.22
2023-02-11T06:25:07.319Z,62.85
2023-02-11T06:27:33.853Z,63.77
2023-02-11T06:30:00.311Z,63.67
2023-02-11T06:32:43.711Z,63.14
2023-02-11T06:35:12.232Z,62.97
2023-02-11T06:37:39.184Z,62.56
2023-02-11T06:40:06.124Z,62.80
2023-02-11T06:42:32.700Z,62.77
2023-02-11T06:44:59.344Z,62.82
2023-02-11T06:47:25.946Z,62.64
2023-02-11T06:49:52.377Z,62.82
2023-02-11T06:52:18.822Z,62.70
2023-02-11T06:54:45.265Z,62.34
2023-02-11T06:57:11.708Z,62.52
2023-02-11T06:59:38.202Z,62.30
2023-02-11T07:02:04.918Z,62.13
2023-02-11T07:04:31.559Z,61.86
2023-02-11T07:06:58.222Z,61.44
2023-02-11T07:09:24.698Z,61.37
2023-02-11T07:11:51.147Z,61.46
2023-02-11T07:14:17.888Z,61.49
2023-02-11T07:16:44.353Z,61.57
2023-02-11T07:19:10.808Z,61.43
2023-02-11T07:21:37.458Z,61.17
2023-02-11T07:24:10.795Z,61.43
2023-02-11T07:26:37.774Z,63.57
2023-02-11T07:29:04.266Z,63.09
2023-02-11T07:31:31.487Z,62.59
2023-02-11T07:34:01.925Z,62.00
2023-02-11T07:36:30.272Z,61.05
2023-02-11T07:38:56.644Z,61.28
2023-02-11T07:41:25.122Z,60.71
2023-02-11T07:43:51.766Z,60.71
2023-02-11T07:46:23.965Z,59.92
2023-02-11T07:48:50.993Z,59.14
2023-02-11T07:51:26.326Z,59.38
2023-02-11T07:53:53.587Z,58.76
2023-02-11T07:56:21.265Z,58.85
2023-02-11T07:58:48.212Z,57.95
2023-02-11T08:01:25.389Z,57.17
2023-02-11T08:03:52.848Z,57.20
2023-02-11T08:06:21.997Z,55.41
2023-02-11T08:08:49.322Z,54.51
2023-02-11T08:11:18.462Z,53.10
2023-02-11T08:13:45.430Z,53.86
2023-02-11T08:16:26.921Z,50.68
2023-02-11T08:18:55.923Z,44.50
2023-02-11T08:21:22.414Z,45.28
2023-02-11T08:23:49.797Z,45.03
2023-02-11T08:26:25.244Z,42.00
2023-02-11T08:28:53.388Z,37.97
2023-02-11T08:31:21.540Z,34.49
2023-02-11T08:33:48.123Z,33.65
2023-02-11T08:36:18.111Z,31.99
2023-02-11T08:38:45.337Z,29.38
2023-02-11T08:41:14.874Z,27.71
2023-02-11T08:43:44.991Z,28.45
2023-02-11T08:46:15.158Z,27.78
2023-02-11T08:48:41.670Z,26.99
2023-02-11T08:51:10.268Z,24.44
2023-02-11T08:53:37.329Z,24.43
2023-02-11T08:56:04.055Z,22.36
2023-02-11T08:58:30.592Z,20.51
2023-02-11T09:00:57.118Z,23.97
2023-02-11T09:03:23.674Z,26.42
2023-02-11T09:05:53.102Z,30.03
2023-02-11T09:08:20.981Z,33.22
2023-02-11T09:10:48.162Z,31.78
2023-02-11T09:13:15.140Z,33.61
2023-02-11T09:15:45.250Z,35.71
2023-02-11T09:18:12.071Z,38.16
2023-02-11T09:20:38.783Z,35.27
2023-02-11T09:23:05.332Z,35.95
2023-02-11T09:25:31.820Z,30.25
2023-02-11T09:27:58.343Z,26.45
2023-02-11T09:30:24.959Z,27.46
2023-02-11T09:32:51.481Z,26.10
2023-02-11T09:35:18.207Z,25.61
2023-02-11T09:37:44.740Z,24.88
2023-02-11T09:40:12.716Z,23.31
2023-02-11T09:43:04.011Z,23.27
2023-02-11T09:45:31.300Z,21.70
2023-02-11T09:48:21.585Z,20.36
2023-02-11T09:51:00.345Z,21.88
2023-02-11T09:53:29.661Z,23.89
2023-02-11T09:55:59.816Z,24.66
2023-02-11T09:58:29.786Z,26.09
2023-02-11T10:01:21.826Z,26.65
2023-02-11T10:04:03.947Z,27.80
2023-02-11T10:06:36.914Z,29.62
2023-02-11T10:09:33.416Z,28.03
2023-02-11T10:12:15.108Z,30.86
2023-02-11T10:14:53.441Z,30.25
2023-02-11T10:17:35.090Z,31.23
2023-02-11T10:20:04.620Z,32.68
2023-02-11T10:22:41.296Z,35.26
2023-02-11T10:25:27.787Z,36.19
2023-02-11T10:27:57.910Z,38.67
2023-02-11T10:30:39.530Z,40.03
2023-02-11T10:33:14.950Z,43.03
2023-02-11T10:35:43.945Z,46.65
2023-02-11T10:38:11.586Z,43.14
2023-02-11T10:40:38.345Z,40.95
2023-02-11T10:43:13.472Z,42.30
2023-02-11T10:45:51.822Z,47.05
2023-02-11T10:48:51.675Z,43.03
2023-02-11T10:51:21.888Z,42.66
2023-02-11T10:54:04.854Z,40.28
2023-02-11T10:56:34.691Z,39.46
2023-02-11T10:59:21.602Z,37.93
2023-02-11T11:01:59.336Z,40.22
2023-02-11T11:04:35.432Z,41.55
2023-02-11T11:07:15.729Z,40.90
2023-02-11T11:09:47.205Z,42.17
2023-02-11T11:12:32.588Z,44.80
2023-02-11T11:15:03.070Z,41.91
2023-02-11T11:17:29.866Z,42.30
2023-02-11T11:20:23.838Z,41.44
2023-02-11T11:22:52.853Z,42.95
2023-02-11T11:25:28.204Z,47.18
2023-02-11T11:27:59.154Z,45.96
2023-02-11T11:30:32.836Z,44.81
2023-02-11T11:33:00.628Z,42.31
2023-02-11T11:35:29.718Z,41.45
2023-02-11T11:38:02.390Z,39.50
2023-02-11T11:40:31.429Z,39.93
2023-02-11T11:43:13.165Z,41.41
2023-02-11T11:45:40.222Z,41.29
2023-02-11T11:48:23.853Z,39.08
2023-02-11T11:50:56.239Z,38.87
2023-02-11T11:53:45.532Z,41.40
2023-02-11T11:56:20.339Z,41.48
2023-02-11T11:58:47.221Z,39.02
2023-02-11T12:01:32.446Z,37.35
2023-02-11T12:04:27.692Z,37.38
2023-02-11T12:07:11.964Z,36.51
2023-02-11T12:10:00.412Z,35.54
2023-02-11T12:12:51.570Z,36.35
2023-02-11T12:15:23.915Z,37.68
2023-02-11T12:18:07.307Z,38.27
2023-02-11T12:20:50.428Z,36.30
2023-02-11T12:23:27.164Z,37.50
2023-02-11T12:26:15.008Z,34.67
2023-02-11T12:28:44.439Z,33.99
2023-02-11T12:31:14.036Z,33.62
2023-02-11T12:33:51.374Z,31.91
2023-02-11T12:36:47.073Z,32.85
2023-02-11T12:39:26.076Z,33.09
2023-02-11T12:42:35.602Z,33.45
2023-02-11T12:45:18.938Z,34.86
2023-02-11T12:48:13.696Z,38.47
2023-02-11T12:50:57.291Z,38.98
2023-02-11T12:54:00.740Z,37.06
2023-02-11T12:56:38.897Z,34.14
2023-02-11T12:59:14.235Z,33.04
2023-02-11T13:01:44.051Z,30.54
2023-02-11T13:04:33.504Z,33.69
2023-02-11T13:07:06.297Z,32.29
2023-02-11T13:09:41.664Z,32.06
2023-02-11T13:12:31.171Z,32.06
2023-02-11T13:15:03.219Z,32.71
2023-02-11T13:17:41.035Z,31.94
2023-02-11T13:20:33.810Z,31.99
2023-02-11T13:23:31.704Z,31.94
2023-02-11T13:26:11.211Z,32.22
2023-02-11T13:29:10.299Z,31.43
2023-02-11T13:31:37.050Z,32.36
2023-02-11T13:34:04.026Z,31.62
2023-02-11T13:36:33.052Z,30.75
2023-02-11T13:39:06.425Z,32.22
2023-02-11T13:41:36.898Z,32.09
2023-02-11T13:44:24.529Z,33.55
2023-02-11T13:46:51.022Z,32.75
2023-02-11T13:49:31.605Z,33.32
2023-02-11T13:51:59.794Z,33.83
2023-02-11T13:54:39.253Z,34.47
2023-02-11T13:57:20.944Z,33.70
2023-02-11T13:59:49.088Z,33.89
2023-02-11T14:02:41.793Z,34.15
2023-02-11T14:05:26.937Z,34.92
2023-02-11T14:08:30.105Z,34.61
2023-02-11T14:11:02.032Z,34.18
2023-02-11T14:13:37.157Z,34.31
2023-02-11T14:16:20.395Z,34.33
2023-02-11T14:18:54.876Z,34.08
2023-02-11T14:21:27.440Z,34.08
2023-02-11T14:24:14.485Z,34.19
2023-02-11T14:27:06.284Z,34.39
2023-02-11T14:29:51.115Z,34.85
2023-02-11T14:32:48.283Z,35.68
2023-02-11T14:35:36.195Z,36.11
2023-02-11T14:38:20.832Z,36.69
2023-02-11T14:40:47.262Z,36.99
2023-02-11T14:43:19.776Z,37.32
2023-02-11T14:45:51.425Z,37.62
2023-02-11T14:48:20.273Z,37.46
2023-02-11T14:50:51.928Z,37.98
2023-02-11T14:53:22.564Z,38.23
2023-02-11T14:55:52.573Z,37.75
2023-02-11T14:58:24.996Z,37.92
2023-02-11T15:01:01.594Z,36.98
2023-02-11T15:03:38.482Z,37.19
2023-02-11T15:06:18.495Z,37.73
2023-02-11T15:08:51.698Z,37.50
2023-02-11T15:11:21.284Z,38.81
2023-02-11T15:13:49.729Z,39.99
2023-02-11T15:16:20.786Z,40.43
2023-02-11T15:18:51.776Z,40.88
2023-02-11T15:21:33.785Z,40.78
2023-02-11T15:24:03.646Z,41.12
2023-02-11T15:26:30.285Z,41.70
2023-02-11T15:28:56.744Z,41.80
2023-02-11T15:31:25.838Z,41.69
2023-02-11T15:33:52.623Z,41.82
2023-02-11T15:36:21.762Z,42.23
2023-02-11T15:39:31.461Z,42.24
2023-02-11T15:42:16.605Z,42.86
2023-02-11T15:44:43.242Z,42.84
2023-02-11T15:47:16.961Z,43.73
2023-02-11T15:49:46.176Z,43.32
2023-02-11T15:52:14.716Z,45.00
2023-02-11T15:54:49.225Z,44.96
2023-02-11T15:57:16.470Z,45.25
2023-02-11T15:59:48.568Z,45.25
2023-02-11T16:02:22.197Z,45.87
2023-02-11T16:04:53.418Z,45.97
2023-02-11T16:07:46.291Z,46.87
2023-02-11T16:10:17.894Z,47.44
2023-02-11T16:13:01.807Z,47.48
2023-02-11T16:15:34.346Z,47.57
2023-02-11T16:18:03.157Z,48.27
2023-02-11T16:20:30.241Z,48.63
2023-02-11T16:22:56.868Z,49.76
2023-02-11T16:25:23.919Z,50.55
2023-02-11T16:27:54.315Z,51.71
2023-02-11T16:30:30.937Z,52.61
2023-02-11T16:32:57.542Z,53.41
2023-02-11T16:35:24.137Z,53.73
2023-02-11T16:37:50.678Z,55.03
2023-02-11T16:40:17.562Z,55.21
2023-02-11T16:42:44.002Z,55.73
2023-02-11T16:45:10.649Z,55.90
2023-02-11T16:47:40.956Z,56.45
2023-02-11T16:50:19.135Z,57.38
2023-02-11T16:52:46.360Z,57.81
2023-02-11T16:55:13.307Z,57.68
2023-02-11T16:57:40.230Z,57.76
2023-02-11T17:00:07.592Z,58.25
2023-02-11T17:02:36.001Z,58.77
2023-02-11T17:05:06.347Z,59.12
2023-02-11T17:07:33.484Z,59.11
2023-02-11T17:10:00.419Z,58.82
2023-02-11T17:12:27.096Z,59.70
2023-02-11T17:14:54.151Z,60.35
2023-02-11T17:17:22.751Z,60.57
2023-02-11T17:19:49.259Z,60.68
2023-02-11T17:22:16.125Z,61.03
2023-02-11T17:24:42.758Z,61.57
2023-02-11T17:27:11.674Z,61.25
2023-02-11T17:29:38.156Z,61.73
2023-02-11T17:32:04.741Z,61.97
2023-02-11T17:34:32.361Z,62.17
2023-02-11T17:37:00.329Z,62.02
2023-02-11T17:39:27.719Z,62.05
2023-02-11T17:41:54.170Z,62.15
2023-02-11T17:44:20.665Z,61.65
2023-02-11T17:46:47.145Z,62.16
2023-02-11T17:49:13.662Z,62.55
2023-02-11T17:51:40.644Z,63.06
2023-02-11T17:54:11.222Z,63.67
2023-02-11T17:56:38.411Z,64.23
2023-02-11T17:59:06.135Z,64.19
2023-02-11T18:01:33.670Z,63.88
2023-02-11T18:04:00.782Z,63.88
2023-02-11T18:06:29.199Z,63.71
2023-02-11T18:08:59.707Z,63.87
2023-02-11T18:11:26.317Z,63.32
2023-02-11T18:13:54.415Z,62.81
2023-02-11T18:16:22.315Z,63.04
2023-02-11T18:18:49.836Z,62.87
2023-02-11T18:21:19.290Z,61.80
2023-02-11T18:23:46.448Z,62.00
2023-02-11T18:26:14.712Z,61.43
2023-02-11T18:28:44.509Z,60.69
2023-02-11T18:31:12.575Z,59.99
2023-02-11T18:33:40.432Z,60.26
2023-02-11T18:36:08.966Z,59.96
2023-02-11T18:38:35.729Z,59.85
2023-02-11T18:41:02.909Z,60.04
2023-02-11T18:43:31.735Z,60.20
2023-02-11T18:45:58.396Z,59.48
2023-02-11T18:48:29.056Z,59.74
2023-02-11T18:50:56.112Z,59.36
2023-02-11T18:53:24.698Z,59.98
2023-02-11T18:55:52.888Z,59.73
2023-02-11T18:58:21.248Z,59.42
2023-02-11T19:00:48.663Z,60.42
2023-02-11T19:03:15.678Z,59.33
2023-02-11T19:05:46.515Z,60.33
2023-02-11T19:08:13.394Z,60.50
2023-02-11T19:10:41.748Z,60.61
2023-02-11T19:13:08.675Z,60.17
2023-02-11T19:15:36.040Z,59.10
2023-02-11T19:18:02.491Z,58.79
2023-02-11T19:20:33.475Z,58.42
2023-02-11T19:23:00.888Z,57.96
2023-02-11T19:25:27.614Z,57.49
2023-02-11T19:27:54.064Z,57.70
2023-02-11T19:30:20.576Z,57.25
2023-02-11T19:32:52.371Z,57.51
2023-02-11T19:35:20.090Z,57.71
2023-02-11T19:37:46.664Z,58.20
2023-02-11T19:40:16.575Z,58.08
2023-02-11T19:42:43.496Z,58.24
2023-02-11T19:45:10.356Z,58.02
2023-02-11T19:47:36.943Z,58.46
2023-02-11T19:50:05.135Z,59.01
2023-02-11T19:52:31.753Z,59.28
2023-02-11T19:54:58.222Z,59.07
2023-02-11T19:57:24.712Z,59.20
2023-02-11T19:59:53.241Z,58.88
2023-02-11T20:02:19.825Z,58.93
2023-02-11T20:04:46.373Z,59.23
2023-02-11T20:07:13.214Z,58.76
2023-02-11T20:09:45.265Z,58.92
2023-02-11T20:12:12.149Z,59.26
2023-02-11T20:14:39.050Z,58.83
2023-02-11T20:17:05.504Z,58.56
2023-02-11T20:19:32.090Z,58.15
2023-02-11T20:21:58.557Z,58.51
2023-02-11T20:24:26.030Z,58.44
2023-02-11T20:26:56.256Z,58.04
2023-02-11T20:29:24.563Z,58.14
2023-02-11T20:31:51.295Z,58.13
2023-02-11T20:34:18.124Z,58.78
2023-02-11T20:36:51.626Z,58.38
2023-02-11T20:39:21.623Z,57.90
2023-02-11T20:41:48.528Z,58.06
2023-02-11T20:44:15.520Z,58.04
2023-02-11T20:46:45.973Z,57.86
2023-02-11T20:49:18.799Z,57.76
2023-02-11T20:51:46.130Z,57.83
2023-02-11T20:54:19.510Z,59.87
2023-02-11T20:56:48.069Z,60.42
2023-02-11T20:59:16.590Z,58.84
2023-02-11T21:01:45.917Z,58.53
2023-02-11T21:04:15.839Z,58.65
2023-02-11T21:06:45.350Z,58.71
2023-02-11T21:09:16.873Z,58.57
2023-02-11T21:11:43.337Z,58.80
2023-02-11T21:14:10.381Z,58.38
2023-02-11T21:16:37.412Z,58.70
2023-02-11T21:19:04.306Z,58.39
2023-02-11T21:21:34.808Z,58.99
2023-02-11T21:24:01.492Z,58.79
2023-02-11T21:26:28.011Z,58.79
2023-02-11T21:28:55.219Z,58.43
2023-02-11T21:31:27.614Z,58.53
2023-02-11T21:33:55.378Z,58.47
2023-02-11T21:36:23.060Z,58.63
2023-02-11T21:38:50.116Z,58.13
2023-02-11T21:41:17.301Z,58.10
2023-02-11T21:43:44.103Z,58.06
2023-02-11T21:46:13.939Z,57.94
2023-02-11T21:48:40.750Z,58.22
2023-02-11T21:51:11.280Z,58.44
2023-02-11T21:53:38.314Z,58.36
2023-02-11T21:56:11.397Z,58.42
2023-02-11T21:58:38.330Z,58.45
2023-02-11T22:01:16.967Z,58.35
2023-02-11T22:03:44.359Z,58.00
2023-02-11T22:06:14.457Z,57.87
2023-02-11T22:08:41.364Z,58.20
2023-02-11T22:11:11.227Z,58.15
2023-02-11T22:13:37.741Z,58.25
2023-02-11T22:16:08.876Z,57.93
2023-02-11T22:18:35.389Z,58.03
2023-02-11T22:21:08.106Z,58.17
2023-02-11T22:23:35.481Z,58.31
2023-02-11T22:26:14.054Z,58.50
2023-02-11T22:28:40.976Z,58.56
2023-02-11T22:31:12.289Z,58.50
2023-02-11T22:33:39.191Z,58.30
2023-02-11T22:36:08.755Z,58.23
2023-02-11T22:38:36.484Z,58.66
2023-02-11T22:41:08.562Z,58.26
2023-02-11T22:43:35.783Z,58.40
2023-02-11T22:46:03.511Z,58.68
2023-02-11T22:48:30.123Z,58.35
2023-02-11T22:50:56.703Z,58.45
2023-02-11T22:53:25.516Z,58.42
2023-02-11T22:55:52.441Z,58.38
2023-02-11T22:58:19.177Z,58.25
2023-02-11T23:00:45.714Z,58.73
2023-02-11T23:03:12.424Z,58.76
2023-02-11T23:05:40.184Z,58.96
2023-02-11T23:08:08.559Z,59.35
2023-02-11T23:10:36.782Z,59.23
2023-02-11T23:13:05.137Z,59.13
2023-02-11T23:15:31.807Z,58.98
2023-02-11T23:17:58.791Z,58.86
2023-02-11T23:20:25.449Z,58.74
2023-02-11T23:22:51.942Z,58.90
2023-02-11T23:25:18.459Z,58.92
2023-02-11T23:27:44.910Z,58.65
2023-02-11T23:30:11.967Z,58.86
2023-02-11T23:32:39.298Z,59.09
2023-02-11T23:35:06.066Z,58.91
2023-02-11T23:37:32.576Z,59.06
2023-02-11T23:39:59.030Z,59.54
2023-02-11T23:42:25.782Z,59.53
2023-02-11T23:44:52.231Z,59.08
2023-02-11T23:47:18.655Z,58.65
2023-02-11T23:49:45.136Z,58.79
2023-02-11T23:52:11.756Z,58.40
2023-02-11T23:54:38.258Z,58.46
2023-02-11T23:57:04.698Z,58.41
2023-02-11T23:59:31.176Z,58.58
